sensor_id;sensor_type;location;lat;lon;timestamp;P1;durP1;ratioP1;P2;durP2;ratioP2
9948;SDS011;5013;51.840;8.276;2023-03-23T00:01:17;3.07;;;2.73;;
9948;SDS011;5013;51.840;8.276;2023-03-23T00:03:45;3.23;;;2.90;;
9948;SDS011;5013;51.840;8.276;2023-03-23T00:06:13;6.53;;;3.70;;
9948;SDS011;5013;51.840;8.276;2023-03-23T00:08:43;5.93;;;3.50;;
9948;SDS011;5013;51.840;8.276;2023-03-23T00:11:14;7.37;;;3.50;;
9948;SDS011;5013;51.840;8.276;2023-03-23T00:13:43;3.40;;;3.10;;
9948;SDS011;5013;51.840;8.276;2023-03-23T00:16:10;5.50;;;3.23;;
9948;SDS011;5013;51.840;8.276;2023-03-23T00:21:12;5.67;;;3.40;;
9948;SDS011;5013;51.840;8.276;2023-03-23T00:23:37;4.33;;;3.67;;
9948;SDS011;5013;51.840;8.276;2023-03-23T00:26:04;6.00;;;4.37;;
9948;SDS011;5013;51.840;8.276;2023-03-23T00:28:30;6.27;;;3.80;;
9948;SDS011;5013;51.840;8.276;2023-03-23T00:33:26;3.90;;;3.40;;
9948;SDS011;5013;51.840;8.276;2023-03-23T00:35:54;4.93;;;3.87;;
9948;SDS011;5013;51.840;8.276;2023-03-23T00:38:23;3.57;;;2.90;;
9948;SDS011;5013;51.840;8.276;2023-03-23T00:40:50;3.17;;;2.90;;
9948;SDS011;5013;51.840;8.276;2023-03-23T00:43:16;6.17;;;4.00;;
9948;SDS011;5013;51.840;8.276;2023-03-23T00:45:43;5.73;;;5.13;;
9948;SDS011;5013;51.840;8.276;2023-03-23T00:48:10;6.97;;;5.20;;
9948;SDS011;5013;51.840;8.276;2023-03-23T00:50:37;4.67;;;3.90;;
9948;SDS011;5013;51.840;8.276;2023-03-23T00:53:03;6.00;;;3.30;;
9948;SDS011;5013;51.840;8.276;2023-03-23T00:55:29;4.53;;;3.80;;
9948;SDS011;5013;51.840;8.276;2023-03-23T00:57:55;5.63;;;3.10;;
9948;SDS011;5013;51.840;8.276;2023-03-23T01:00:21;3.50;;;3.20;;
9948;SDS011;5013;51.840;8.276;2023-03-23T01:02:48;3.13;;;2.83;;
9948;SDS011;5013;51.840;8.276;2023-03-23T01:05:16;5.90;;;3.00;;
9948;SDS011;5013;51.840;8.276;2023-03-23T01:07:42;3.53;;;2.90;;
9948;SDS011;5013;51.840;8.276;2023-03-23T01:10:09;3.10;;;2.80;;
9948;SDS011;5013;51.840;8.276;2023-03-23T01:12:37;5.70;;;2.90;;
9948;SDS011;5013;51.840;8.276;2023-03-23T01:15:04;3.83;;;2.60;;
9948;SDS011;5013;51.840;8.276;2023-03-23T01:17:31;4.23;;;2.90;;
9948;SDS011;5013;51.840;8.276;2023-03-23T01:19:56;3.17;;;2.30;;
9948;SDS011;5013;51.840;8.276;2023-03-23T01:22:22;3.20;;;2.90;;
9948;SDS011;5013;51.840;8.276;2023-03-23T01:24:48;4.80;;;2.40;;
9948;SDS011;5013;51.840;8.276;2023-03-23T01:27:13;4.57;;;2.87;;
9948;SDS011;5013;51.840;8.276;2023-03-23T01:29:39;4.67;;;2.80;;
9948;SDS011;5013;51.840;8.276;2023-03-23T01:32:05;3.00;;;2.60;;
9948;SDS011;5013;51.840;8.276;2023-03-23T01:34:30;4.63;;;2.70;;
9948;SDS011;5013;51.840;8.276;2023-03-23T01:36:56;2.90;;;2.70;;
9948;SDS011;5013;51.840;8.276;2023-03-23T01:39:22;3.27;;;2.47;;
9948;SDS011;5013;51.840;8.276;2023-03-23T01:41:48;7.43;;;2.63;;
9948;SDS011;5013;51.840;8.276;2023-03-23T01:46:42;2.80;;;2.60;;
9948;SDS011;5013;51.840;8.276;2023-03-23T01:49:13;3.10;;;2.80;;
9948;SDS011;5013;51.840;8.276;2023-03-23T01:52:04;4.57;;;2.97;;
9948;SDS011;5013;51.840;8.276;2023-03-23T01:54:31;3.80;;;2.63;;
9948;SDS011;5013;51.840;8.276;2023-03-23T01:57:01;2.30;;;2.10;;
9948;SDS011;5013;51.840;8.276;2023-03-23T01:59:30;3.50;;;3.23;;
9948;SDS011;5013;51.840;8.276;2023-03-23T02:01:58;2.80;;;2.50;;
9948;SDS011;5013;51.840;8.276;2023-03-23T02:04:25;4.00;;;2.63;;
9948;SDS011;5013;51.840;8.276;2023-03-23T02:06:52;6.43;;;2.60;;
9948;SDS011;5013;51.840;8.276;2023-03-23T02:09:19;3.03;;;2.83;;
9948;SDS011;5013;51.840;8.276;2023-03-23T02:11:46;3.97;;;3.23;;
9948;SDS011;5013;51.840;8.276;2023-03-23T02:14:14;3.77;;;3.33;;
9948;SDS011;5013;51.840;8.276;2023-03-23T02:27:05;4.30;;;2.63;;
9948;SDS011;5013;51.840;8.276;2023-03-23T02:35:01;3.47;;;2.97;;
9948;SDS011;5013;51.840;8.276;2023-03-23T02:37:36;3.23;;;2.90;;
9948;SDS011;5013;51.840;8.276;2023-03-23T02:40:09;3.77;;;3.27;;
9948;SDS011;5013;51.840;8.276;2023-03-23T02:42:42;5.63;;;2.77;;
9948;SDS011;5013;51.840;8.276;2023-03-23T02:45:10;4.63;;;2.70;;
9948;SDS011;5013;51.840;8.276;2023-03-23T02:47:38;4.83;;;2.63;;
9948;SDS011;5013;51.840;8.276;2023-03-23T02:50:07;2.77;;;2.57;;
9948;SDS011;5013;51.840;8.276;2023-03-23T02:52:37;2.87;;;2.63;;
9948;SDS011;5013;51.840;8.276;2023-03-23T02:55:05;4.13;;;2.63;;
9948;SDS011;5013;51.840;8.276;2023-03-23T02:57:33;3.73;;;2.30;;
9948;SDS011;5013;51.840;8.276;2023-03-23T03:00:00;3.77;;;2.60;;
9948;SDS011;5013;51.840;8.276;2023-03-23T03:02:32;2.40;;;2.17;;
9948;SDS011;5013;51.840;8.276;2023-03-23T03:10:42;2.43;;;1.90;;
9948;SDS011;5013;51.840;8.276;2023-03-23T03:16:52;2.17;;;2.07;;
9948;SDS011;5013;51.840;8.276;2023-03-23T03:18:56;2.60;;;2.40;;
9948;SDS011;5013;51.840;8.276;2023-03-23T03:21:27;4.47;;;2.97;;
9948;SDS011;5013;51.840;8.276;2023-03-23T03:23:55;3.27;;;2.50;;
9948;SDS011;5013;51.840;8.276;2023-03-23T03:26:25;3.03;;;2.40;;
9948;SDS011;5013;51.840;8.276;2023-03-23T03:28:52;2.60;;;2.50;;
9948;SDS011;5013;51.840;8.276;2023-03-23T03:31:27;4.17;;;2.77;;
9948;SDS011;5013;51.840;8.276;2023-03-23T03:33:57;5.27;;;2.40;;
9948;SDS011;5013;51.840;8.276;2023-03-23T03:36:27;3.67;;;3.00;;
9948;SDS011;5013;51.840;8.276;2023-03-23T03:39:00;4.20;;;2.77;;
9948;SDS011;5013;51.840;8.276;2023-03-23T03:41:29;2.50;;;2.13;;
9948;SDS011;5013;51.840;8.276;2023-03-23T03:43:55;4.67;;;2.50;;
9948;SDS011;5013;51.840;8.276;2023-03-23T03:46:21;4.23;;;2.83;;
9948;SDS011;5013;51.840;8.276;2023-03-23T03:48:46;7.03;;;2.70;;
9948;SDS011;5013;51.840;8.276;2023-03-23T03:51:12;2.83;;;2.50;;
9948;SDS011;5013;51.840;8.276;2023-03-23T03:53:37;3.50;;;2.50;;
9948;SDS011;5013;51.840;8.276;2023-03-23T03:56:03;2.70;;;2.40;;
9948;SDS011;5013;51.840;8.276;2023-03-23T03:58:30;3.37;;;2.40;;
9948;SDS011;5013;51.840;8.276;2023-03-23T04:00:59;3.43;;;2.97;;
9948;SDS011;5013;51.840;8.276;2023-03-23T04:03:26;4.57;;;3.10;;
9948;SDS011;5013;51.840;8.276;2023-03-23T04:05:53;4.30;;;2.40;;
9948;SDS011;5013;51.840;8.276;2023-03-23T04:08:20;2.77;;;2.57;;
9948;SDS011;5013;51.840;8.276;2023-03-23T04:10:51;3.57;;;2.60;;
9948;SDS011;5013;51.840;8.276;2023-03-23T04:13:18;2.47;;;2.30;;
9948;SDS011;5013;51.840;8.276;2023-03-23T04:15:45;3.23;;;2.30;;
9948;SDS011;5013;51.840;8.276;2023-03-23T04:18:12;2.43;;;2.20;;
9948;SDS011;5013;51.840;8.276;2023-03-23T04:20:39;3.53;;;2.50;;
9948;SDS011;5013;51.840;8.276;2023-03-23T04:23:06;2.53;;;2.33;;
9948;SDS011;5013;51.840;8.276;2023-03-23T04:25:32;3.87;;;2.50;;
9948;SDS011;5013;51.840;8.276;2023-03-23T04:27:58;2.37;;;2.27;;
9948;SDS011;5013;51.840;8.276;2023-03-23T04:30:25;4.33;;;2.10;;
9948;SDS011;5013;51.840;8.276;2023-03-23T04:32:52;2.20;;;2.00;;
9948;SDS011;5013;51.840;8.276;2023-03-23T04:35:20;2.20;;;2.00;;
9948;SDS011;5013;51.840;8.276;2023-03-23T04:37:47;3.33;;;2.70;;
9948;SDS011;5013;51.840;8.276;2023-03-23T04:40:14;3.17;;;2.50;;
9948;SDS011;5013;51.840;8.276;2023-03-23T04:42:43;2.53;;;2.33;;
9948;SDS011;5013;51.840;8.276;2023-03-23T04:45:14;3.53;;;2.23;;
9948;SDS011;5013;51.840;8.276;2023-03-23T04:47:47;4.67;;;2.63;;
9948;SDS011;5013;51.840;8.276;2023-03-23T04:50:32;2.83;;;2.57;;
9948;SDS011;5013;51.840;8.276;2023-03-23T04:52:59;2.83;;;2.67;;
9948;SDS011;5013;51.840;8.276;2023-03-23T04:55:30;2.70;;;2.50;;
9948;SDS011;5013;51.840;8.276;2023-03-23T04:58:03;3.63;;;2.43;;
9948;SDS011;5013;51.840;8.276;2023-03-23T05:00:30;2.30;;;2.20;;
9948;SDS011;5013;51.840;8.276;2023-03-23T05:02:57;5.23;;;2.47;;
9948;SDS011;5013;51.840;8.276;2023-03-23T05:05:23;3.73;;;2.47;;
9948;SDS011;5013;51.840;8.276;2023-03-23T05:07:50;2.30;;;2.20;;
9948;SDS011;5013;51.840;8.276;2023-03-23T05:10:16;2.37;;;2.23;;
9948;SDS011;5013;51.840;8.276;2023-03-23T05:12:42;2.50;;;2.30;;
9948;SDS011;5013;51.840;8.276;2023-03-23T05:15:09;2.23;;;2.13;;
9948;SDS011;5013;51.840;8.276;2023-03-23T05:17:36;2.17;;;2.07;;
9948;SDS011;5013;51.840;8.276;2023-03-23T05:20:03;2.50;;;2.30;;
9948;SDS011;5013;51.840;8.276;2023-03-23T05:22:34;2.47;;;2.27;;
9948;SDS011;5013;51.840;8.276;2023-03-23T05:25:01;2.43;;;2.33;;
9948;SDS011;5013;51.840;8.276;2023-03-23T05:27:27;2.70;;;2.20;;
9948;SDS011;5013;51.840;8.276;2023-03-23T05:29:55;2.10;;;2.10;;
9948;SDS011;5013;51.840;8.276;2023-03-23T05:32:23;2.63;;;2.47;;
9948;SDS011;5013;51.840;8.276;2023-03-23T05:34:54;2.50;;;2.40;;
9948;SDS011;5013;51.840;8.276;2023-03-23T05:37:21;2.10;;;2.00;;
9948;SDS011;5013;51.840;8.276;2023-03-23T05:39:47;3.57;;;2.37;;
9948;SDS011;5013;51.840;8.276;2023-03-23T05:42:12;2.20;;;2.10;;
9948;SDS011;5013;51.840;8.276;2023-03-23T05:44:38;2.10;;;2.00;;
9948;SDS011;5013;51.840;8.276;2023-03-23T05:47:03;2.17;;;2.07;;
9948;SDS011;5013;51.840;8.276;2023-03-23T05:49:30;2.60;;;2.40;;
9948;SDS011;5013;51.840;8.276;2023-03-23T05:51:55;2.03;;;1.93;;
9948;SDS011;5013;51.840;8.276;2023-03-23T05:54:21;2.20;;;2.10;;
9948;SDS011;5013;51.840;8.276;2023-03-23T05:56:46;2.80;;;2.10;;
9948;SDS011;5013;51.840;8.276;2023-03-23T05:59:13;2.57;;;2.03;;
9948;SDS011;5013;51.840;8.276;2023-03-23T06:01:40;2.20;;;2.10;;
9948;SDS011;5013;51.840;8.276;2023-03-23T06:04:05;2.37;;;2.10;;
9948;SDS011;5013;51.840;8.276;2023-03-23T06:06:31;2.20;;;2.10;;
9948;SDS011;5013;51.840;8.276;2023-03-23T06:08:57;2.07;;;1.97;;
9948;SDS011;5013;51.840;8.276;2023-03-23T06:11:23;2.83;;;2.30;;
9948;SDS011;5013;51.840;8.276;2023-03-23T06:13:51;2.67;;;2.47;;
9948;SDS011;5013;51.840;8.276;2023-03-23T06:16:17;2.20;;;2.10;;
9948;SDS011;5013;51.840;8.276;2023-03-23T06:18:43;2.17;;;2.00;;
9948;SDS011;5013;51.840;8.276;2023-03-23T06:21:09;2.17;;;1.90;;
9948;SDS011;5013;51.840;8.276;2023-03-23T06:23:35;2.67;;;2.47;;
9948;SDS011;5013;51.840;8.276;2023-03-23T06:26:03;2.43;;;2.20;;
9948;SDS011;5013;51.840;8.276;2023-03-23T06:28:30;3.83;;;2.17;;
9948;SDS011;5013;51.840;8.276;2023-03-23T06:30:59;2.80;;;2.37;;
9948;SDS011;5013;51.840;8.276;2023-03-23T06:33:25;4.00;;;2.00;;
9948;SDS011;5013;51.840;8.276;2023-03-23T06:35:51;2.23;;;2.13;;
9948;SDS011;5013;51.840;8.276;2023-03-23T06:38:16;2.37;;;2.17;;
9948;SDS011;5013;51.840;8.276;2023-03-23T06:40:42;2.30;;;2.20;;
9948;SDS011;5013;51.840;8.276;2023-03-23T06:43:11;2.20;;;2.10;;
9948;SDS011;5013;51.840;8.276;2023-03-23T06:45:37;2.30;;;2.10;;
9948;SDS011;5013;51.840;8.276;2023-03-23T06:48:03;2.40;;;2.30;;
9948;SDS011;5013;51.840;8.276;2023-03-23T06:50:28;2.43;;;2.33;;
9948;SDS011;5013;51.840;8.276;2023-03-23T06:52:54;2.53;;;2.40;;
9948;SDS011;5013;51.840;8.276;2023-03-23T06:55:20;2.33;;;2.23;;
9948;SDS011;5013;51.840;8.276;2023-03-23T06:57:46;2.50;;;2.30;;
9948;SDS011;5013;51.840;8.276;2023-03-23T07:00:15;2.13;;;2.03;;
9948;SDS011;5013;51.840;8.276;2023-03-23T07:02:41;2.07;;;1.97;;
9948;SDS011;5013;51.840;8.276;2023-03-23T07:05:08;2.40;;;2.20;;
9948;SDS011;5013;51.840;8.276;2023-03-23T07:07:36;2.60;;;2.27;;
9948;SDS011;5013;51.840;8.276;2023-03-23T07:10:03;2.27;;;2.17;;
9948;SDS011;5013;51.840;8.276;2023-03-23T07:12:30;2.53;;;2.33;;
9948;SDS011;5013;51.840;8.276;2023-03-23T07:14:55;3.27;;;2.50;;
9948;SDS011;5013;51.840;8.276;2023-03-23T07:17:21;2.43;;;2.33;;
9948;SDS011;5013;51.840;8.276;2023-03-23T07:19:47;6.13;;;2.47;;
9948;SDS011;5013;51.840;8.276;2023-03-23T07:22:12;5.83;;;2.77;;
9948;SDS011;5013;51.840;8.276;2023-03-23T07:24:38;3.67;;;2.47;;
9948;SDS011;5013;51.840;8.276;2023-03-23T07:27:03;2.63;;;2.40;;
9948;SDS011;5013;51.840;8.276;2023-03-23T07:29:29;2.63;;;2.40;;
9948;SDS011;5013;51.840;8.276;2023-03-23T07:31:55;3.37;;;3.03;;
9948;SDS011;5013;51.840;8.276;2023-03-23T07:34:21;3.57;;;3.00;;
9948;SDS011;5013;51.840;8.276;2023-03-23T07:36:47;2.90;;;2.37;;
9948;SDS011;5013;51.840;8.276;2023-03-23T07:39:13;3.30;;;2.73;;
9948;SDS011;5013;51.840;8.276;2023-03-23T07:41:39;3.70;;;2.70;;
9948;SDS011;5013;51.840;8.276;2023-03-23T07:44:05;6.03;;;3.10;;
9948;SDS011;5013;51.840;8.276;2023-03-23T07:46:32;2.87;;;2.57;;
9948;SDS011;5013;51.840;8.276;2023-03-23T07:48:58;3.03;;;2.40;;
9948;SDS011;5013;51.840;8.276;2023-03-23T07:51:23;5.13;;;2.50;;
9948;SDS011;5013;51.840;8.276;2023-03-23T07:53:49;3.47;;;2.97;;
9948;SDS011;5013;51.840;8.276;2023-03-23T07:56:16;4.17;;;2.93;;
9948;SDS011;5013;51.840;8.276;2023-03-23T07:58:44;2.83;;;2.40;;
9948;SDS011;5013;51.840;8.276;2023-03-23T08:04:33;3.63;;;2.40;;
9948;SDS011;5013;51.840;8.276;2023-03-23T08:07:02;4.90;;;2.57;;
9948;SDS011;5013;51.840;8.276;2023-03-23T08:09:28;3.33;;;2.43;;
9948;SDS011;5013;51.840;8.276;2023-03-23T08:11:53;4.33;;;2.43;;
9948;SDS011;5013;51.840;8.276;2023-03-23T08:14:19;5.57;;;2.50;;
9948;SDS011;5013;51.840;8.276;2023-03-23T08:16:44;3.77;;;2.60;;
9948;SDS011;5013;51.840;8.276;2023-03-23T08:19:10;3.13;;;2.20;;
9948;SDS011;5013;51.840;8.276;2023-03-23T08:21:36;4.93;;;2.70;;
9948;SDS011;5013;51.840;8.276;2023-03-23T08:24:01;5.90;;;2.40;;
9948;SDS011;5013;51.840;8.276;2023-03-23T08:26:27;6.43;;;2.53;;
9948;SDS011;5013;51.840;8.276;2023-03-23T08:28:53;2.90;;;2.30;;
9948;SDS011;5013;51.840;8.276;2023-03-23T08:31:18;3.17;;;2.53;;
9948;SDS011;5013;51.840;8.276;2023-03-23T08:33:44;4.73;;;2.67;;
9948;SDS011;5013;51.840;8.276;2023-03-23T08:36:10;6.90;;;2.40;;
9948;SDS011;5013;51.840;8.276;2023-03-23T08:38:36;7.97;;;2.67;;
9948;SDS011;5013;51.840;8.276;2023-03-23T08:41:03;4.63;;;2.77;;
9948;SDS011;5013;51.840;8.276;2023-03-23T08:43:32;5.10;;;2.57;;
9948;SDS011;5013;51.840;8.276;2023-03-23T08:45:59;4.37;;;2.60;;
9948;SDS011;5013;51.840;8.276;2023-03-23T08:48:24;4.37;;;2.30;;
9948;SDS011;5013;51.840;8.276;2023-03-23T08:50:50;8.60;;;2.87;;
9948;SDS011;5013;51.840;8.276;2023-03-23T08:53:17;5.40;;;2.30;;
9948;SDS011;5013;51.840;8.276;2023-03-23T08:55:43;8.23;;;3.03;;
9948;SDS011;5013;51.840;8.276;2023-03-23T08:58:10;4.50;;;2.00;;
9948;SDS011;5013;51.840;8.276;2023-03-23T09:00:35;5.20;;;2.57;;
9948;SDS011;5013;51.840;8.276;2023-03-23T09:03:01;6.53;;;2.67;;
9948;SDS011;5013;51.840;8.276;2023-03-23T09:05:27;5.90;;;2.37;;
9948;SDS011;5013;51.840;8.276;2023-03-23T09:07:54;3.27;;;2.27;;
9948;SDS011;5013;51.840;8.276;2023-03-23T09:10:24;4.23;;;2.40;;
9948;SDS011;5013;51.840;8.276;2023-03-23T09:12:51;6.33;;;2.77;;
9948;SDS011;5013;51.840;8.276;2023-03-23T09:15:18;7.87;;;3.00;;
9948;SDS011;5013;51.840;8.276;2023-03-23T09:17:45;6.57;;;2.10;;
9948;SDS011;5013;51.840;8.276;2023-03-23T09:20:14;5.00;;;2.03;;
9948;SDS011;5013;51.840;8.276;2023-03-23T09:22:45;4.83;;;2.37;;
9948;SDS011;5013;51.840;8.276;2023-03-23T09:25:13;4.33;;;2.47;;
9948;SDS011;5013;51.840;8.276;2023-03-23T09:27:41;3.10;;;2.70;;
9948;SDS011;5013;51.840;8.276;2023-03-23T09:30:09;3.27;;;2.17;;
9948;SDS011;5013;51.840;8.276;2023-03-23T09:32:37;2.83;;;1.93;;
9948;SDS011;5013;51.840;8.276;2023-03-23T09:35:04;5.13;;;2.37;;
9948;SDS011;5013;51.840;8.276;2023-03-23T09:37:37;5.23;;;2.53;;
9948;SDS011;5013;51.840;8.276;2023-03-23T09:40:10;8.10;;;2.33;;
9948;SDS011;5013;51.840;8.276;2023-03-23T09:45:35;5.60;;;2.57;;
9948;SDS011;5013;51.840;8.276;2023-03-23T09:48:07;2.70;;;2.17;;
9948;SDS011;5013;51.840;8.276;2023-03-23T09:50:36;4.97;;;2.73;;
9948;SDS011;5013;51.840;8.276;2023-03-23T09:53:08;4.90;;;2.53;;
9948;SDS011;5013;51.840;8.276;2023-03-23T09:55:40;6.47;;;2.60;;
9948;SDS011;5013;51.840;8.276;2023-03-23T10:03:25;4.13;;;2.27;;
9948;SDS011;5013;51.840;8.276;2023-03-23T10:05:55;5.73;;;2.40;;
9948;SDS011;5013;51.840;8.276;2023-03-23T10:08:22;6.70;;;2.70;;
9948;SDS011;5013;51.840;8.276;2023-03-23T10:16:25;4.57;;;2.50;;
9948;SDS011;5013;51.840;8.276;2023-03-23T10:21:27;4.93;;;2.47;;
9948;SDS011;5013;51.840;8.276;2023-03-23T10:24:03;6.23;;;2.90;;
9948;SDS011;5013;51.840;8.276;2023-03-23T10:34:46;3.67;;;2.20;;
9948;SDS011;5013;51.840;8.276;2023-03-23T10:37:21;6.00;;;2.90;;
9948;SDS011;5013;51.840;8.276;2023-03-23T10:39:52;5.60;;;2.60;;
9948;SDS011;5013;51.840;8.276;2023-03-23T10:42:32;5.07;;;2.50;;
9948;SDS011;5013;51.840;8.276;2023-03-23T10:45:11;8.23;;;2.77;;
9948;SDS011;5013;51.840;8.276;2023-03-23T10:47:56;11.43;;;3.07;;
9948;SDS011;5013;51.840;8.276;2023-03-23T10:50:32;6.17;;;2.20;;
9948;SDS011;5013;51.840;8.276;2023-03-23T10:53:00;6.50;;;2.50;;
9948;SDS011;5013;51.840;8.276;2023-03-23T10:55:37;8.00;;;2.73;;
9948;SDS011;5013;51.840;8.276;2023-03-23T10:58:07;6.13;;;2.47;;
9948;SDS011;5013;51.840;8.276;2023-03-23T11:00:45;7.13;;;2.57;;
9948;SDS011;5013;51.840;8.276;2023-03-23T11:05:54;8.00;;;2.80;;
9948;SDS011;5013;51.840;8.276;2023-03-23T11:08:26;8.33;;;2.50;;
9948;SDS011;5013;51.840;8.276;2023-03-23T11:11:32;4.23;;;2.20;;
9948;SDS011;5013;51.840;8.276;2023-03-23T11:13:52;5.57;;;2.30;;
9948;SDS011;5013;51.840;8.276;2023-03-23T11:16:42;3.10;;;2.00;;
9948;SDS011;5013;51.840;8.276;2023-03-23T11:19:21;5.13;;;1.30;;
9948;SDS011;5013;51.840;8.276;2023-03-23T11:21:56;2.83;;;1.40;;
9948;SDS011;5013;51.840;8.276;2023-03-23T11:24:36;3.40;;;1.20;;
9948;SDS011;5013;51.840;8.276;2023-03-23T11:27:06;3.03;;;1.40;;
9948;SDS011;5013;51.840;8.276;2023-03-23T11:29:33;2.97;;;1.47;;
9948;SDS011;5013;51.840;8.276;2023-03-23T11:32:05;3.53;;;1.23;;
9948;SDS011;5013;51.840;8.276;2023-03-23T11:34:37;4.17;;;1.20;;
9948;SDS011;5013;51.840;8.276;2023-03-23T11:42:38;1.80;;;1.07;;
9948;SDS011;5013;51.840;8.276;2023-03-23T11:50:54;1.63;;;1.13;;
9948;SDS011;5013;51.840;8.276;2023-03-23T11:53:47;3.67;;;1.20;;
9948;SDS011;5013;51.840;8.276;2023-03-23T11:56:25;4.27;;;1.10;;
9948;SDS011;5013;51.840;8.276;2023-03-23T11:58:58;5.37;;;1.43;;
9948;SDS011;5013;51.840;8.276;2023-03-23T12:04:25;2.50;;;0.90;;
9948;SDS011;5013;51.840;8.276;2023-03-23T12:07:09;2.00;;;0.90;;
9948;SDS011;5013;51.840;8.276;2023-03-23T12:09:39;7.50;;;3.67;;
9948;SDS011;5013;51.840;8.276;2023-03-23T12:21:05;3.07;;;1.33;;
9948;SDS011;5013;51.840;8.276;2023-03-23T12:24:05;2.70;;;1.20;;
9948;SDS011;5013;51.840;8.276;2023-03-23T12:26:48;1.90;;;0.90;;
9948;SDS011;5013;51.840;8.276;2023-03-23T12:43:36;6.20;;;1.67;;
9948;SDS011;5013;51.840;8.276;2023-03-23T12:46:10;2.50;;;1.70;;
9948;SDS011;5013;51.840;8.276;2023-03-23T12:52:14;6.53;;;1.90;;
9948;SDS011;5013;51.840;8.276;2023-03-23T13:03:02;4.33;;;2.03;;
9948;SDS011;5013;51.840;8.276;2023-03-23T13:05:50;3.30;;;1.90;;
9948;SDS011;5013;51.840;8.276;2023-03-23T13:08:28;6.40;;;2.20;;
9948;SDS011;5013;51.840;8.276;2023-03-23T13:11:03;4.10;;;1.83;;
9948;SDS011;5013;51.840;8.276;2023-03-23T13:13:47;2.83;;;2.10;;
9948;SDS011;5013;51.840;8.276;2023-03-23T13:16:19;4.57;;;2.63;;
9948;SDS011;5013;51.840;8.276;2023-03-23T13:19:06;2.37;;;2.10;;
9948;SDS011;5013;51.840;8.276;2023-03-23T13:24:09;7.03;;;2.40;;
9948;SDS011;5013;51.840;8.276;2023-03-23T13:26:40;5.10;;;2.30;;
9948;SDS011;5013;51.840;8.276;2023-03-23T13:31:49;4.33;;;1.90;;
9948;SDS011;5013;51.840;8.276;2023-03-23T13:37:05;8.10;;;2.40;;
9948;SDS011;5013;51.840;8.276;2023-03-23T13:42:22;2.30;;;2.10;;
9948;SDS011;5013;51.840;8.276;2023-03-23T13:50:09;5.60;;;2.53;;
9948;SDS011;5013;51.840;8.276;2023-03-23T13:57:54;7.83;;;2.90;;
9948;SDS011;5013;51.840;8.276;2023-03-23T14:13:19;3.83;;;3.53;;
9948;SDS011;5013;51.840;8.276;2023-03-23T14:15:56;4.50;;;3.13;;
9948;SDS011;5013;51.840;8.276;2023-03-23T14:18:35;3.97;;;3.40;;
9948;SDS011;5013;51.840;8.276;2023-03-23T14:21:04;5.27;;;3.97;;
9948;SDS011;5013;51.840;8.276;2023-03-23T14:23:32;5.47;;;4.40;;
9948;SDS011;5013;51.840;8.276;2023-03-23T14:26:02;3.90;;;3.60;;
9948;SDS011;5013;51.840;8.276;2023-03-23T14:28:38;4.90;;;3.53;;
9948;SDS011;5013;51.840;8.276;2023-03-23T14:31:13;4.73;;;3.80;;
9948;SDS011;5013;51.840;8.276;2023-03-23T14:33:40;4.37;;;3.97;;
9948;SDS011;5013;51.840;8.276;2023-03-23T14:36:06;4.23;;;3.17;;
9948;SDS011;5013;51.840;8.276;2023-03-23T14:38:32;3.93;;;3.60;;
9948;SDS011;5013;51.840;8.276;2023-03-23T14:41:02;4.30;;;3.87;;
9948;SDS011;5013;51.840;8.276;2023-03-23T14:43:30;4.33;;;3.63;;
9948;SDS011;5013;51.840;8.276;2023-03-23T14:45:59;4.40;;;3.50;;
9948;SDS011;5013;51.840;8.276;2023-03-23T14:48:26;3.87;;;3.47;;
9948;SDS011;5013;51.840;8.276;2023-03-23T14:51:01;4.67;;;3.43;;
9948;SDS011;5013;51.840;8.276;2023-03-23T14:53:32;4.70;;;3.10;;
9948;SDS011;5013;51.840;8.276;2023-03-23T14:56:02;3.67;;;3.37;;
9948;SDS011;5013;51.840;8.276;2023-03-23T14:58:36;3.77;;;3.30;;
9948;SDS011;5013;51.840;8.276;2023-03-23T15:01:12;4.20;;;3.23;;
9948;SDS011;5013;51.840;8.276;2023-03-23T15:03:53;3.63;;;2.70;;
9948;SDS011;5013;51.840;8.276;2023-03-23T15:06:23;3.63;;;2.63;;
9948;SDS011;5013;51.840;8.276;2023-03-23T15:08:53;3.33;;;2.83;;
9948;SDS011;5013;51.840;8.276;2023-03-23T15:11:27;4.00;;;3.00;;
9948;SDS011;5013;51.840;8.276;2023-03-23T15:14:13;4.20;;;2.87;;
9948;SDS011;5013;51.840;8.276;2023-03-23T15:16:45;3.80;;;2.60;;
9948;SDS011;5013;51.840;8.276;2023-03-23T15:19:16;7.10;;;2.60;;
9948;SDS011;5013;51.840;8.276;2023-03-23T15:21:54;6.33;;;2.97;;
9948;SDS011;5013;51.840;8.276;2023-03-23T15:24:26;4.93;;;2.50;;
9948;SDS011;5013;51.840;8.276;2023-03-23T15:29:31;4.10;;;2.50;;
9948;SDS011;5013;51.840;8.276;2023-03-23T15:31:57;2.83;;;2.47;;
9948;SDS011;5013;51.840;8.276;2023-03-23T15:34:30;4.87;;;3.00;;
9948;SDS011;5013;51.840;8.276;2023-03-23T15:37:03;3.63;;;2.80;;
9948;SDS011;5013;51.840;8.276;2023-03-23T15:39:31;3.30;;;2.83;;
9948;SDS011;5013;51.840;8.276;2023-03-23T15:41:58;4.43;;;3.10;;
9948;SDS011;5013;51.840;8.276;2023-03-23T15:44:28;4.20;;;3.47;;
9948;SDS011;5013;51.840;8.276;2023-03-23T15:47:17;3.33;;;3.07;;
9948;SDS011;5013;51.840;8.276;2023-03-23T15:49:45;3.60;;;3.30;;
9948;SDS011;5013;51.840;8.276;2023-03-23T15:52:13;5.60;;;3.83;;
9948;SDS011;5013;51.840;8.276;2023-03-23T15:54:45;4.77;;;3.60;;
9948;SDS011;5013;51.840;8.276;2023-03-23T15:57:12;4.40;;;3.97;;
9948;SDS011;5013;51.840;8.276;2023-03-23T15:59:37;4.80;;;4.10;;
9948;SDS011;5013;51.840;8.276;2023-03-23T16:02:03;3.90;;;3.60;;
9948;SDS011;5013;51.840;8.276;2023-03-23T16:04:29;4.67;;;4.20;;
9948;SDS011;5013;51.840;8.276;2023-03-23T16:06:56;4.00;;;3.60;;
9948;SDS011;5013;51.840;8.276;2023-03-23T16:09:23;3.50;;;3.30;;
9948;SDS011;5013;51.840;8.276;2023-03-23T16:11:48;4.03;;;3.80;;
9948;SDS011;5013;51.840;8.276;2023-03-23T16:14:14;4.37;;;4.07;;
9948;SDS011;5013;51.840;8.276;2023-03-23T16:19:10;4.10;;;3.80;;
9948;SDS011;5013;51.840;8.276;2023-03-23T16:21:38;5.23;;;4.70;;
9948;SDS011;5013;51.840;8.276;2023-03-23T16:24:05;4.57;;;3.80;;
9948;SDS011;5013;51.840;8.276;2023-03-23T16:26:31;5.27;;;4.30;;
9948;SDS011;5013;51.840;8.276;2023-03-23T16:28:57;4.70;;;4.30;;
9948;SDS011;5013;51.840;8.276;2023-03-23T16:31:22;4.47;;;4.13;;
9948;SDS011;5013;51.840;8.276;2023-03-23T16:33:48;4.30;;;3.90;;
9948;SDS011;5013;51.840;8.276;2023-03-23T16:36:13;4.40;;;4.00;;
9948;SDS011;5013;51.840;8.276;2023-03-23T16:38:40;4.47;;;4.07;;
9948;SDS011;5013;51.840;8.276;2023-03-23T16:41:06;4.53;;;4.17;;
9948;SDS011;5013;51.840;8.276;2023-03-23T16:43:32;7.03;;;4.20;;
9948;SDS011;5013;51.840;8.276;2023-03-23T16:45:58;6.40;;;4.33;;
9948;SDS011;5013;51.840;8.276;2023-03-23T16:48:24;7.07;;;4.47;;
9948;SDS011;5013;51.840;8.276;2023-03-23T16:50:50;3.50;;;3.20;;
9948;SDS011;5013;51.840;8.276;2023-03-23T16:53:18;3.90;;;3.63;;
9948;SDS011;5013;51.840;8.276;2023-03-23T16:55:44;6.47;;;4.07;;
9948;SDS011;5013;51.840;8.276;2023-03-23T16:58:12;6.20;;;4.60;;
9948;SDS011;5013;51.840;8.276;2023-03-23T17:00:38;5.97;;;4.30;;
9948;SDS011;5013;51.840;8.276;2023-03-23T17:03:04;8.80;;;4.70;;
9948;SDS011;5013;51.840;8.276;2023-03-23T17:05:30;5.87;;;4.23;;
9948;SDS011;5013;51.840;8.276;2023-03-23T17:07:56;4.33;;;3.93;;
9948;SDS011;5013;51.840;8.276;2023-03-23T17:10:23;4.30;;;3.57;;
9948;SDS011;5013;51.840;8.276;2023-03-23T17:12:51;6.10;;;4.23;;
9948;SDS011;5013;51.840;8.276;2023-03-23T17:15:17;3.53;;;3.23;;
9948;SDS011;5013;51.840;8.276;2023-03-23T17:17:43;7.17;;;3.63;;
9948;SDS011;5013;51.840;8.276;2023-03-23T17:20:08;4.10;;;3.07;;
9948;SDS011;5013;51.840;8.276;2023-03-23T17:22:35;4.53;;;3.20;;
9948;SDS011;5013;51.840;8.276;2023-03-23T17:27:46;7.60;;;3.43;;
9948;SDS011;5013;51.840;8.276;2023-03-23T17:30:12;3.97;;;3.10;;
9948;SDS011;5013;51.840;8.276;2023-03-23T17:32:38;4.13;;;3.60;;
9948;SDS011;5013;51.840;8.276;2023-03-23T17:35:04;9.30;;;3.40;;
9948;SDS011;5013;51.840;8.276;2023-03-23T17:37:30;4.63;;;2.50;;
9948;SDS011;5013;51.840;8.276;2023-03-23T17:39:56;5.70;;;2.70;;
9948;SDS011;5013;51.840;8.276;2023-03-23T17:42:22;3.37;;;2.30;;
9948;SDS011;5013;51.840;8.276;2023-03-23T17:44:48;5.33;;;2.80;;
9948;SDS011;5013;51.840;8.276;2023-03-23T17:47:13;4.67;;;3.23;;
9948;SDS011;5013;51.840;8.276;2023-03-23T17:49:39;4.93;;;3.30;;
9948;SDS011;5013;51.840;8.276;2023-03-23T17:52:05;7.50;;;3.00;;
9948;SDS011;5013;51.840;8.276;2023-03-23T17:54:31;3.97;;;2.97;;
9948;SDS011;5013;51.840;8.276;2023-03-23T17:56:56;4.10;;;2.60;;
9948;SDS011;5013;51.840;8.276;2023-03-23T17:59:23;5.73;;;2.77;;